sensor_id;sensor_type;location;lat;lon;timestamp;temperature;humidity
3380;DHT22;1703;51.964;7.642;2023-04-12T00:00:51;10.60;99.90
3380;DHT22;1703;51.964;7.642;2023-04-12T00:03:18;10.70;99.90
3380;DHT22;1703;51.964;7.642;2023-04-12T00:05:46;10.70;99.90
3380;DHT22;1703;51.964;7.642;2023-04-12T00:08:19;10.60;99.90
3380;DHT22;1703;51.964;7.642;2023-04-12T00:10:49;10.70;99.90
3380;DHT22;1703;51.964;7.642;2023-04-12T00:13:16;10.70;99.90
3380;DHT22;1703;51.964;7.642;2023-04-12T00:15:44;10.70;99.90
3380;DHT22;1703;51.964;7.642;2023-04-12T00:18:11;10.70;99.90
3380;DHT22;1703;51.964;7.642;2023-04-12T00:20:38;10.70;99.90
3380;DHT22;1703;51.964;7.642;2023-04-12T00:23:05;10.70;99.90
3380;DHT22;1703;51.964;7.642;2023-04-12T00:25:31;10.70;99.90
3380;DHT22;1703;51.964;7.642;2023-04-12T00:27:58;10.80;99.90
3380;DHT22;1703;51.964;7.642;2023-04-12T00:30:25;10.80;99.90
3380;DHT22;1703;51.964;7.642;2023-04-12T00:32:54;10.80;99.90
3380;DHT22;1703;51.964;7.642;2023-04-12T00:35:20;10.80;99.90
3380;DHT22;1703;51.964;7.642;2023-04-12T00:37:49;10.90;99.90
3380;DHT22;1703;51.964;7.642;2023-04-12T00:40:16;10.90;99.90
3380;DHT22;1703;51.964;7.642;2023-04-12T00:42:42;10.80;99.90
3380;DHT22;1703;51.964;7.642;2023-04-12T00:45:11;10.80;99.90
3380;DHT22;1703;51.964;7.642;2023-04-12T00:47:38;10.90;99.90
3380;DHT22;1703;51.964;7.642;2023-04-12T00:50:10;10.90;99.90
3380;DHT22;1703;51.964;7.642;2023-04-12T00:52:38;10.80;99.90
3380;DHT22;1703;51.964;7.642;2023-04-12T00:55:07;10.80;99.90
3380;DHT22;1703;51.964;7.642;2023-04-12T00:57:36;10.80;99.90
3380;DHT22;1703;51.964;7.642;2023-04-12T01:00:03;10.80;99.90
3380;DHT22;1703;51.964;7.642;2023-04-12T01:02:30;10.80;99.90
3380;DHT22;1703;51.964;7.642;2023-04-12T01:04:58;10.70;99.90
3380;DHT22;1703;51.964;7.642;2023-04-12T01:07:37;10.70;99.90
3380;DHT22;1703;51.964;7.642;2023-04-12T01:10:18;10.70;99.90
3380;DHT22;1703;51.964;7.642;2023-04-12T01:12:58;10.70;99.90
3380;DHT22;1703;51.964;7.642;2023-04-12T01:15:28;10.70;99.90
3380;DHT22;1703;51.964;7.642;2023-04-12T01:18:02;10.70;99.90
3380;DHT22;1703;51.964;7.642;2023-04-12T01:20:34;10.70;99.90
3380;DHT22;1703;51.964;7.642;2023-04-12T01:23:17;10.70;99.90
3380;DHT22;1703;51.964;7.642;2023-04-12T01:26:04;10.70;99.90
3380;DHT22;1703;51.964;7.642;2023-04-12T01:28:37;10.70;99.90
3380;DHT22;1703;51.964;7.642;2023-04-12T01:31:07;10.70;99.90
3380;DHT22;1703;51.964;7.642;2023-04-12T01:33:37;10.70;99.90
3380;DHT22;1703;51.964;7.642;2023-04-12T01:36:11;10.70;99.90
3380;DHT22;1703;51.964;7.642;2023-04-12T01:38:40;10.70;99.90
3380;DHT22;1703;51.964;7.642;2023-04-12T01:41:07;10.70;99.90
3380;DHT22;1703;51.964;7.642;2023-04-12T01:43:40;10.70;99.90
3380;DHT22;1703;51.964;7.642;2023-04-12T01:46:08;10.70;99.90
3380;DHT22;1703;51.964;7.642;2023-04-12T01:48:36;10.70;99.90
3380;DHT22;1703;51.964;7.642;2023-04-12T01:51:04;10.80;99.90
3380;DHT22;1703;51.964;7.642;2023-04-12T01:53:37;10.80;99.90
3380;DHT22;1703;51.964;7.642;2023-04-12T01:56:08;10.80;99.90
3380;DHT22;1703;51.964;7.642;2023-04-12T01:58:36;10.80;99.90
3380;DHT22;1703;51.964;7.642;2023-04-12T02:01:06;10.80;99.90
3380;DHT22;1703;51.964;7.642;2023-04-12T02:03:38;10.80;99.90
3380;DHT22;1703;51.964;7.642;2023-04-12T02:06:07;10.70;99.90
3380;DHT22;1703;51.964;7.642;2023-04-12T02:08:35;10.70;99.90
3380;DHT22;1703;51.964;7.642;2023-04-12T02:11:07;10.70;99.90
3380;DHT22;1703;51.964;7.642;2023-04-12T02:13:34;10.70;99.90
3380;DHT22;1703;51.964;7.642;2023-04-12T02:16:01;10.80;99.90
3380;DHT22;1703;51.964;7.642;2023-04-12T02:18:33;10.80;99.90
3380;DHT22;1703;51.964;7.642;2023-04-12T02:21:01;10.80;99.90
3380;DHT22;1703;51.964;7.642;2023-04-12T02:23:27;10.80;99.90
3380;DHT22;1703;51.964;7.642;2023-04-12T02:25:54;10.80;99.90
3380;DHT22;1703;51.964;7.642;2023-04-12T02:28:21;10.80;99.90
3380;DHT22;1703;51.964;7.642;2023-04-12T02:30:48;10.80;99.90
3380;DHT22;1703;51.964;7.642;2023-04-12T02:33:20;10.80;99.90
3380;DHT22;1703;51.964;7.642;2023-04-12T02:35:51;10.80;99.90
3380;DHT22;1703;51.964;7.642;2023-04-12T02:38:19;10.80;99.90
3380;DHT22;1703;51.964;7.642;2023-04-12T02:40:47;10.80;99.90
3380;DHT22;1703;51.964;7.642;2023-04-12T02:43:16;10.80;99.90
3380;DHT22;1703;51.964;7.642;2023-04-12T02:45:46;10.80;99.90
3380;DHT22;1703;51.964;7.642;2023-04-12T02:48:13;10.80;99.90
3380;DHT22;1703;51.964;7.642;2023-04-12T02:50:42;10.80;99.90
3380;DHT22;1703;51.964;7.642;2023-04-12T02:53:19;10.70;99.90
3380;DHT22;1703;51.964;7.642;2023-04-12T02:55:54;10.70;99.90
3380;DHT22;1703;51.964;7.642;2023-04-12T02:58:26;10.70;99.90
3380;DHT22;1703;51.964;7.642;2023-04-12T03:00:52;10.70;99.90
3380;DHT22;1703;51.964;7.642;2023-04-12T03:03:26;10.70;99.90
3380;DHT22;1703;51.964;7.642;2023-04-12T03:06:00;10.70;99.90
3380;DHT22;1703;51.964;7.642;2023-04-12T03:08:28;10.70;99.90
3380;DHT22;1703;51.964;7.642;2023-04-12T03:10:56;10.70;99.90
3380;DHT22;1703;51.964;7.642;2023-04-12T03:13:25;10.70;99.90
3380;DHT22;1703;51.964;7.642;2023-04-12T03:15:56;10.70;99.90
3380;DHT22;1703;51.964;7.642;2023-04-12T03:18:30;10.70;99.90
3380;DHT22;1703;51.964;7.642;2023-04-12T03:20:57;10.70;99.90
3380;DHT22;1703;51.964;7.642;2023-04-12T03:23:23;10.70;99.90
3380;DHT22;1703;51.964;7.642;2023-04-12T03:26:04;10.70;99.90
3380;DHT22;1703;51.964;7.642;2023-04-12T03:28:32;10.70;99.90
3380;DHT22;1703;51.964;7.642;2023-04-12T03:31:02;10.70;99.90
3380;DHT22;1703;51.964;7.642;2023-04-12T03:33:41;10.70;99.90
3380;DHT22;1703;51.964;7.642;2023-04-12T03:36:18;10.70;99.90
3380;DHT22;1703;51.964;7.642;2023-04-12T03:38:50;10.60;99.90
3380;DHT22;1703;51.964;7.642;2023-04-12T03:41:20;10.60;99.90
3380;DHT22;1703;51.964;7.642;2023-04-12T03:43:47;10.60;99.90
3380;DHT22;1703;51.964;7.642;2023-04-12T03:46:17;10.50;99.90
3380;DHT22;1703;51.964;7.642;2023-04-12T03:48:49;10.50;99.90
3380;DHT22;1703;51.964;7.642;2023-04-12T03:51:18;10.50;99.90
3380;DHT22;1703;51.964;7.642;2023-04-12T03:53:47;10.50;99.90
3380;DHT22;1703;51.964;7.642;2023-04-12T03:56:14;10.50;99.90
3380;DHT22;1703;51.964;7.642;2023-04-12T03:58:46;10.40;99.90
3380;DHT22;1703;51.964;7.642;2023-04-12T04:01:14;10.50;99.90
3380;DHT22;1703;51.964;7.642;2023-04-12T04:03:43;10.50;99.90
3380;DHT22;1703;51.964;7.642;2023-04-12T04:06:22;10.40;99.90
3380;DHT22;1703;51.964;7.642;2023-04-12T04:08:52;10.30;99.90
3380;DHT22;1703;51.964;7.642;2023-04-12T04:11:20;10.30;99.90
3380;DHT22;1703;51.964;7.642;2023-04-12T04:13:52;10.30;99.90
3380;DHT22;1703;51.964;7.642;2023-04-12T04:16:19;10.30;99.90
3380;DHT22;1703;51.964;7.642;2023-04-12T04:18:47;10.20;99.90
3380;DHT22;1703;51.964;7.642;2023-04-12T04:21:19;10.10;99.90
3380;DHT22;1703;51.964;7.642;2023-04-12T04:23:48;10.10;99.90
3380;DHT22;1703;51.964;7.642;2023-04-12T04:26:17;10.10;99.90
3380;DHT22;1703;51.964;7.642;2023-04-12T04:28:57;10.20;99.90
3380;DHT22;1703;51.964;7.642;2023-04-12T04:31:30;10.20;99.90
3380;DHT22;1703;51.964;7.642;2023-04-12T04:34:00;10.20;99.90
3380;DHT22;1703;51.964;7.642;2023-04-12T04:36:31;10.20;99.90
3380;DHT22;1703;51.964;7.642;2023-04-12T04:38:59;10.20;99.90
3380;DHT22;1703;51.964;7.642;2023-04-12T04:41:52;10.20;99.90
3380;DHT22;1703;51.964;7.642;2023-04-12T04:44:35;10.20;99.90
3380;DHT22;1703;51.964;7.642;2023-04-12T04:47:04;10.10;99.90
3380;DHT22;1703;51.964;7.642;2023-04-12T04:49:33;10.10;99.90
3380;DHT22;1703;51.964;7.642;2023-04-12T04:52:20;10.10;99.90
3380;DHT22;1703;51.964;7.642;2023-04-12T04:54:47;10.20;99.90
3380;DHT22;1703;51.964;7.642;2023-04-12T04:57:20;10.20;99.90
3380;DHT22;1703;51.964;7.642;2023-04-12T04:59:49;10.30;99.90
3380;DHT22;1703;51.964;7.642;2023-04-12T05:02:16;10.40;99.90
3380;DHT22;1703;51.964;7.642;2023-04-12T05:04:44;10.40;99.90
3380;DHT22;1703;51.964;7.642;2023-04-12T05:07:14;10.30;99.90
3380;DHT22;1703;51.964;7.642;2023-04-12T05:09:43;10.30;99.90
3380;DHT22;1703;51.964;7.642;2023-04-12T05:12:11;10.30;99.90
3380;DHT22;1703;51.964;7.642;2023-04-12T05:14:41;10.20;99.90
3380;DHT22;1703;51.964;7.642;2023-04-12T05:17:09;10.20;99.90
3380;DHT22;1703;51.964;7.642;2023-04-12T05:19:36;10.20;99.90
3380;DHT22;1703;51.964;7.642;2023-04-12T05:22:02;10.10;99.90
3380;DHT22;1703;51.964;7.642;2023-04-12T05:24:29;10.20;99.90
3380;DHT22;1703;51.964;7.642;2023-04-12T05:26:57;10.20;99.90
3380;DHT22;1703;51.964;7.642;2023-04-12T05:29:24;10.10;99.90
3380;DHT22;1703;51.964;7.642;2023-04-12T05:31:52;10.20;99.90
3380;DHT22;1703;51.964;7.642;2023-04-12T05:34:23;10.20;99.90
3380;DHT22;1703;51.964;7.642;2023-04-12T05:36:52;10.30;99.90
3380;DHT22;1703;51.964;7.642;2023-04-12T05:39:20;10.30;99.90
3380;DHT22;1703;51.964;7.642;2023-04-12T05:41:49;10.20;99.90
3380;DHT22;1703;51.964;7.642;2023-04-12T05:44:17;10.30;99.90
3380;DHT22;1703;51.964;7.642;2023-04-12T05:46:45;10.30;99.90
3380;DHT22;1703;51.964;7.642;2023-04-12T05:49:12;10.30;99.90
3380;DHT22;1703;51.964;7.642;2023-04-12T05:51:40;10.40;99.90
3380;DHT22;1703;51.964;7.642;2023-04-12T05:54:16;10.40;99.90
3380;DHT22;1703;51.964;7.642;2023-04-12T05:56:46;10.40;99.90
3380;DHT22;1703;51.964;7.642;2023-04-12T05:59:13;10.30;99.90
3380;DHT22;1703;51.964;7.642;2023-04-12T06:01:41;10.30;99.90
3380;DHT22;1703;51.964;7.642;2023-04-12T06:04:09;10.30;99.90
3380;DHT22;1703;51.964;7.642;2023-04-12T06:06:39;10.20;99.90
3380;DHT22;1703;51.964;7.642;2023-04-12T06:09:08;10.20;99.90
3380;DHT22;1703;51.964;7.642;2023-04-12T06:11:35;10.10;99.90
3380;DHT22;1703;51.964;7.642;2023-04-12T06:14:05;10.10;99.90
3380;DHT22;1703;51.964;7.642;2023-04-12T06:16:32;10.00;99.90
3380;DHT22;1703;51.964;7.642;2023-04-12T06:18:59;10.00;99.90
3380;DHT22;1703;51.964;7.642;2023-04-12T06:21:26;10.00;99.90
3380;DHT22;1703;51.964;7.642;2023-04-12T06:23:54;10.00;99.90
3380;DHT22;1703;51.964;7.642;2023-04-12T06:26:21;10.00;99.90
3380;DHT22;1703;51.964;7.642;2023-04-12T06:28:48;10.00;99.90
3380;DHT22;1703;51.964;7.642;2023-04-12T06:31:15;10.00;99.90
3380;DHT22;1703;51.964;7.642;2023-04-12T06:33:42;9.90;99.90
3380;DHT22;1703;51.964;7.642;2023-04-12T06:36:10;10.00;99.90
3380;DHT22;1703;51.964;7.642;2023-04-12T06:38:39;10.00;99.90
3380;DHT22;1703;51.964;7.642;2023-04-12T06:41:07;10.00;99.90
3380;DHT22;1703;51.964;7.642;2023-04-12T06:43:34;10.10;99.90
3380;DHT22;1703;51.964;7.642;2023-04-12T06:46:01;10.10;99.90
3380;DHT22;1703;51.964;7.642;2023-04-12T06:48:28;10.20;99.90
3380;DHT22;1703;51.964;7.642;2023-04-12T06:50:55;10.10;99.90
3380;DHT22;1703;51.964;7.642;2023-04-12T06:53:22;10.20;99.90
3380;DHT22;1703;51.964;7.642;2023-04-12T06:55:48;10.20;99.90
3380;DHT22;1703;51.964;7.642;2023-04-12T06:58:17;10.20;99.90
3380;DHT22;1703;51.964;7.642;2023-04-12T07:00:43;10.10;99.90
3380;DHT22;1703;51.964;7.642;2023-04-12T07:03:10;10.10;99.90
3380;DHT22;1703;51.964;7.642;2023-04-12T07:05:37;10.20;99.90
3380;DHT22;1703;51.964;7.642;2023-04-12T07:08:05;10.20;99.90
3380;DHT22;1703;51.964;7.642;2023-04-12T07:10:32;10.20;99.90
3380;DHT22;1703;51.964;7.642;2023-04-12T07:13:00;10.20;99.90
3380;DHT22;1703;51.964;7.642;2023-04-12T07:15:32;10.30;99.90
3380;DHT22;1703;51.964;7.642;2023-04-12T07:17:59;10.20;99.90
3380;DHT22;1703;51.964;7.642;2023-04-12T07:20:26;10.20;99.90
3380;DHT22;1703;51.964;7.642;2023-04-12T07:22:53;10.30;99.90
3380;DHT22;1703;51.964;7.642;2023-04-12T07:25:20;10.30;99.90
3380;DHT22;1703;51.964;7.642;2023-04-12T07:27:46;10.30;99.90
3380;DHT22;1703;51.964;7.642;2023-04-12T07:30:13;10.30;99.90
3380;DHT22;1703;51.964;7.642;2023-04-12T07:32:42;10.30;99.90
3380;DHT22;1703;51.964;7.642;2023-04-12T07:35:09;10.20;99.90
3380;DHT22;1703;51.964;7.642;2023-04-12T07:37:36;10.20;99.90
3380;DHT22;1703;51.964;7.642;2023-04-12T07:40:04;10.30;99.90
3380;DHT22;1703;51.964;7.642;2023-04-12T07:42:31;10.30;99.90
3380;DHT22;1703;51.964;7.642;2023-04-12T07:44:57;10.10;99.90
3380;DHT22;1703;51.964;7.642;2023-04-12T07:47:24;10.20;99.90
3380;DHT22;1703;51.964;7.642;2023-04-12T07:49:52;10.20;99.90
3380;DHT22;1703;51.964;7.642;2023-04-12T07:52:19;10.20;99.90
3380;DHT22;1703;51.964;7.642;2023-04-12T07:54:46;10.20;99.90
3380;DHT22;1703;51.964;7.642;2023-04-12T07:57:13;10.10;99.90
3380;DHT22;1703;51.964;7.642;2023-04-12T07:59:43;10.20;99.90
3380;DHT22;1703;51.964;7.642;2023-04-12T08:02:09;10.10;99.90
3380;DHT22;1703;51.964;7.642;2023-04-12T08:04:36;10.10;99.90
3380;DHT22;1703;51.964;7.642;2023-04-12T08:07:04;10.20;99.90
3380;DHT22;1703;51.964;7.642;2023-04-12T08:09:31;10.30;99.90
3380;DHT22;1703;51.964;7.642;2023-04-12T08:11:58;10.30;99.90
3380;DHT22;1703;51.964;7.642;2023-04-12T08:14:26;10.30;99.90
3380;DHT22;1703;51.964;7.642;2023-04-12T08:16:52;10.30;99.90
3380;DHT22;1703;51.964;7.642;2023-04-12T08:19:19;10.50;99.90
3380;DHT22;1703;51.964;7.642;2023-04-12T08:21:46;10.50;99.90
3380;DHT22;1703;51.964;7.642;2023-04-12T08:24:14;10.60;99.90
3380;DHT22;1703;51.964;7.642;2023-04-12T08:26:41;10.70;99.90
3380;DHT22;1703;51.964;7.642;2023-04-12T08:29:08;10.80;99.90
3380;DHT22;1703;51.964;7.642;2023-04-12T08:31:35;10.90;99.90
3380;DHT22;1703;51.964;7.642;2023-04-12T08:34:02;10.90;99.90
3380;DHT22;1703;51.964;7.642;2023-04-12T08:36:28;11.00;99.90
3380;DHT22;1703;51.964;7.642;2023-04-12T08:38:57;10.90;99.90
3380;DHT22;1703;51.964;7.642;2023-04-12T08:41:26;11.00;99.90
3380;DHT22;1703;51.964;7.642;2023-04-12T08:43:53;11.10;99.90
3380;DHT22;1703;51.964;7.642;2023-04-12T08:46:20;11.00;99.90
3380;DHT22;1703;51.964;7.642;2023-04-12T08:48:49;11.00;99.90
3380;DHT22;1703;51.964;7.642;2023-04-12T08:51:19;11.00;99.90
3380;DHT22;1703;51.964;7.642;2023-04-12T08:53:46;10.90;99.90
3380;DHT22;1703;51.964;7.642;2023-04-12T08:56:14;10.80;99.90
3380;DHT22;1703;51.964;7.642;2023-04-12T08:58:45;10.80;99.90
3380;DHT22;1703;51.964;7.642;2023-04-12T09:01:14;10.70;99.90
3380;DHT22;1703;51.964;7.642;2023-04-12T09:03:41;10.70;99.90
3380;DHT22;1703;51.964;7.642;2023-04-12T09:06:09;10.70;99.90
3380;DHT22;1703;51.964;7.642;2023-04-12T09:08:35;10.60;99.90
3380;DHT22;1703;51.964;7.642;2023-04-12T09:11:20;10.60;99.90
3380;DHT22;1703;51.964;7.642;2023-04-12T09:13:49;10.70;99.90
3380;DHT22;1703;51.964;7.642;2023-04-12T09:16:16;10.70;99.90
3380;DHT22;1703;51.964;7.642;2023-04-12T09:18:48;10.70;99.90
3380;DHT22;1703;51.964;7.642;2023-04-12T09:21:16;10.80;99.90
3380;DHT22;1703;51.964;7.642;2023-04-12T09:23:43;10.90;99.90
3380;DHT22;1703;51.964;7.642;2023-04-12T09:26:26;10.90;99.90
3380;DHT22;1703;51.964;7.642;2023-04-12T09:28:55;11.00;99.90
3380;DHT22;1703;51.964;7.642;2023-04-12T09:31:21;11.10;99.90
3380;DHT22;1703;51.964;7.642;2023-04-12T09:33:48;11.20;99.90
3380;DHT22;1703;51.964;7.642;2023-04-12T09:36:15;11.30;99.90
3380;DHT22;1703;51.964;7.642;2023-04-12T09:38:59;11.30;99.90
3380;DHT22;1703;51.964;7.642;2023-04-12T09:41:26;11.30;99.90
3380;DHT22;1703;51.964;7.642;2023-04-12T09:43:57;11.40;99.90
3380;DHT22;1703;51.964;7.642;2023-04-12T09:46:24;11.30;99.90
3380;DHT22;1703;51.964;7.642;2023-04-12T09:48:51;11.30;99.90
3380;DHT22;1703;51.964;7.642;2023-04-12T09:51:26;11.20;99.90
3380;DHT22;1703;51.964;7.642;2023-04-12T09:53:55;11.20;99.90
3380;DHT22;1703;51.964;7.642;2023-04-12T09:56:24;11.30;99.90
3380;DHT22;1703;51.964;7.642;2023-04-12T09:58:53;11.40;99.90
3380;DHT22;1703;51.964;7.642;2023-04-12T10:01:24;11.40;99.90
3380;DHT22;1703;51.964;7.642;2023-04-12T10:03:51;11.50;99.90
3380;DHT22;1703;51.964;7.642;2023-04-12T10:06:18;11.50;99.90
3380;DHT22;1703;51.964;7.642;2023-04-12T10:08:47;11.60;99.90
3380;DHT22;1703;51.964;7.642;2023-04-12T10:11:17;11.60;99.90
3380;DHT22;1703;51.964;7.642;2023-04-12T10:13:45;11.60;99.90
3380;DHT22;1703;51.964;7.642;2023-04-12T10:16:14;11.60;99.90
3380;DHT22;1703;51.964;7.642;2023-04-12T10:18:43;11.60;99.90
3380;DHT22;1703;51.964;7.642;2023-04-12T10:21:11;11.70;99.90
3380;DHT22;1703;51.964;7.642;2023-04-12T10:23:39;11.70;99.90
3380;DHT22;1703;51.964;7.642;2023-04-12T10:26:06;11.80;99.90
3380;DHT22;1703;51.964;7.642;2023-04-12T10:28:34;11.80;99.90
3380;DHT22;1703;51.964;7.642;2023-04-12T10:31:27;11.80;99.90
3380;DHT22;1703;51.964;7.642;2023-04-12T10:33:56;11.70;99.90
3380;DHT22;1703;51.964;7.642;2023-04-12T10:36:50;11.80;99.90
3380;DHT22;1703;51.964;7.642;2023-04-12T10:39:17;11.80;99.90
3380;DHT22;1703;51.964;7.642;2023-04-12T10:42:23;11.80;99.90
3380;DHT22;1703;51.964;7.642;2023-04-12T10:44:52;12.00;99.90
3380;DHT22;1703;51.964;7.642;2023-04-12T10:47:55;12.00;99.90
3380;DHT22;1703;51.964;7.642;2023-04-12T10:50:28;12.20;99.90
3380;DHT22;1703;51.964;7.642;2023-04-12T10:53:24;12.20;99.90
3380;DHT22;1703;51.964;7.642;2023-04-12T10:55:51;12.30;99.90
3380;DHT22;1703;51.964;7.642;2023-04-12T10:58:56;12.20;99.90
3380;DHT22;1703;51.964;7.642;2023-04-12T11:01:24;12.30;99.90
3380;DHT22;1703;51.964;7.642;2023-04-12T11:04:20;12.30;99.90
3380;DHT22;1703;51.964;7.642;2023-04-12T11:07:00;12.30;99.90
3380;DHT22;1703;51.964;7.642;2023-04-12T11:09:39;12.10;99.90
3380;DHT22;1703;51.964;7.642;2023-04-12T11:12:11;12.10;99.90
3380;DHT22;1703;51.964;7.642;2023-04-12T11:14:43;11.80;99.90
3380;DHT22;1703;51.964;7.642;2023-04-12T11:17:23;11.70;99.90
3380;DHT22;1703;51.964;7.642;2023-04-12T11:19:56;11.70;99.90
3380;DHT22;1703;51.964;7.642;2023-04-12T11:22:26;11.70;99.90
3380;DHT22;1703;51.964;7.642;2023-04-12T11:24:55;11.70;99.90
3380;DHT22;1703;51.964;7.642;2023-04-12T11:27:24;11.50;99.90
3380;DHT22;1703;51.964;7.642;2023-04-12T11:29:52;11.50;99.90
3380;DHT22;1703;51.964;7.642;2023-04-12T11:32:21;11.50;99.90
3380;DHT22;1703;51.964;7.642;2023-04-12T11:34:48;11.50;99.90
3380;DHT22;1703;51.964;7.642;2023-04-12T11:37:17;11.60;99.90
3380;DHT22;1703;51.964;7.642;2023-04-12T11:39:46;11.50;99.90
3380;DHT22;1703;51.964;7.642;2023-04-12T11:42:14;11.50;99.90
3380;DHT22;1703;51.964;7.642;2023-04-12T11:44:42;11.50;99.90
3380;DHT22;1703;51.964;7.642;2023-04-12T11:47:14;11.40;99.90
3380;DHT22;1703;51.964;7.642;2023-04-12T11:49:45;11.40;99.90
3380;DHT22;1703;51.964;7.642;2023-04-12T11:52:14;11.30;99.90
3380;DHT22;1703;51.964;7.642;2023-04-12T11:54:42;11.30;99.90
3380;DHT22;1703;51.964;7.642;2023-04-12T11:57:12;11.30;99.90
3380;DHT22;1703;51.964;7.642;2023-04-12T11:59:41;11.50;99.90
3380;DHT22;1703;51.964;7.642;2023-04-12T12:02:08;11.40;99.90
3380;DHT22;1703;51.964;7.642;2023-04-12T12:04:35;11.40;99.90
3380;DHT22;1703;51.964;7.642;2023-04-12T12:07:03;11.30;99.90
3380;DHT22;1703;51.964;7.642;2023-04-12T12:09:31;11.20;99.90
3380;DHT22;1703;51.964;7.642;2023-04-12T12:11:58;11.20;99.90
3380;DHT22;1703;51.964;7.642;2023-04-12T12:14:27;11.10;99.90
3380;DHT22;1703;51.964;7.642;2023-04-12T12:16:55;10.90;99.90
3380;DHT22;1703;51.964;7.642;2023-04-12T12:19:30;10.80;99.90
3380;DHT22;1703;51.964;7.642;2023-04-12T12:22:14;10.80;99.90
3380;DHT22;1703;51.964;7.642;2023-04-12T12:24:45;10.70;99.90
3380;DHT22;1703;51.964;7.642;2023-04-12T12:27:16;10.80;99.90
3380;DHT22;1703;51.964;7.642;2023-04-12T12:29:48;10.80;99.90
3380;DHT22;1703;51.964;7.642;2023-04-12T12:32:17;10.60;99.90
3380;DHT22;1703;51.964;7.642;2023-04-12T12:34:54;10.60;99.90
3380;DHT22;1703;51.964;7.642;2023-04-12T12:37:23;10.60;99.90
3380;DHT22;1703;51.964;7.642;2023-04-12T12:40:04;10.60;99.90
3380;DHT22;1703;51.964;7.642;2023-04-12T12:42:45;10.50;99.90
3380;DHT22;1703;51.964;7.642;2023-04-12T12:45:15;10.60;99.90
3380;DHT22;1703;51.964;7.642;2023-04-12T12:47:46;10.70;99.90
3380;DHT22;1703;51.964;7.642;2023-04-12T12:50:14;10.80;99.90
3380;DHT22;1703;51.964;7.642;2023-04-12T12:52:42;10.80;99.90
3380;DHT22;1703;51.964;7.642;2023-04-12T12:55:09;11.10;99.90
3380;DHT22;1703;51.964;7.642;2023-04-12T12:57:36;11.30;99.90
3380;DHT22;1703;51.964;7.642;2023-04-12T13:00:04;11.60;99.90
3380;DHT22;1703;51.964;7.642;2023-04-12T13:02:33;11.80;99.90
3380;DHT22;1703;51.964;7.642;2023-04-12T13:05:00;11.80;99.90
3380;DHT22;1703;51.964;7.642;2023-04-12T13:07:27;12.00;99.90
3380;DHT22;1703;51.964;7.642;2023-04-12T13:09:54;12.00;99.90
3380;DHT22;1703;51.964;7.642;2023-04-12T13:12:21;12.20;99.90
3380;DHT22;1703;51.964;7.642;2023-04-12T13:14:47;12.40;99.90
3380;DHT22;1703;51.964;7.642;2023-04-12T13:17:14;12.50;99.90
3380;DHT22;1703;51.964;7.642;2023-04-12T13:19:43;12.60;99.90
3380;DHT22;1703;51.964;7.642;2023-04-12T13:22:10;12.50;99.90
3380;DHT22;1703;51.964;7.642;2023-04-12T13:24:37;13.00;99.90
3380;DHT22;1703;51.964;7.642;2023-04-12T13:27:04;13.20;99.90
3380;DHT22;1703;51.964;7.642;2023-04-12T13:29:32;13.40;99.90
3380;DHT22;1703;51.964;7.642;2023-04-12T13:32:00;13.60;99.90
3380;DHT22;1703;51.964;7.642;2023-04-12T13:34:26;13.50;99.90
3380;DHT22;1703;51.964;7.642;2023-04-12T13:36:55;13.60;99.90
3380;DHT22;1703;51.964;7.642;2023-04-12T13:39:21;13.60;99.90
3380;DHT22;1703;51.964;7.642;2023-04-12T13:41:48;14.10;99.90
3380;DHT22;1703;51.964;7.642;2023-04-12T13:44:15;14.50;99.90
3380;DHT22;1703;51.964;7.642;2023-04-12T13:46:42;14.80;99.90
3380;DHT22;1703;51.964;7.642;2023-04-12T13:49:09;14.90;99.90
3380;DHT22;1703;51.964;7.642;2023-04-12T13:51:36;15.40;99.90
3380;DHT22;1703;51.964;7.642;2023-04-12T13:54:04;15.90;99.90
3380;DHT22;1703;51.964;7.642;2023-04-12T13:56:31;16.90;99.90
3380;DHT22;1703;51.964;7.642;2023-04-12T13:58:58;18.00;99.90
3380;DHT22;1703;51.964;7.642;2023-04-12T14:01:25;18.80;99.90
3380;DHT22;1703;51.964;7.642;2023-04-12T14:03:51;19.60;99.90
3380;DHT22;1703;51.964;7.642;2023-04-12T14:06:18;19.40;99.90
3380;DHT22;1703;51.964;7.642;2023-04-12T14:08:45;19.80;99.90
3380;DHT22;1703;51.964;7.642;2023-04-12T14:11:13;20.00;99.90
3380;DHT22;1703;51.964;7.642;2023-04-12T14:13:40;20.80;99.90
3380;DHT22;1703;51.964;7.642;2023-04-12T14:16:07;21.50;99.90
3380;DHT22;1703;51.964;7.642;2023-04-12T14:18:34;21.00;99.90
3380;DHT22;1703;51.964;7.642;2023-04-12T14:21:01;21.00;99.90
3380;DHT22;1703;51.964;7.642;2023-04-12T14:23:28;20.80;99.90
3380;DHT22;1703;51.964;7.642;2023-04-12T14:25:55;21.10;99.90
3380;DHT22;1703;51.964;7.642;2023-04-12T14:28:23;20.80;99.90
3380;DHT22;1703;51.964;7.642;2023-04-12T14:30:55;19.80;99.90
3380;DHT22;1703;51.964;7.642;2023-04-12T14:33:23;18.30;99.90
3380;DHT22;1703;51.964;7.642;2023-04-12T14:35:50;17.30;99.90
3380;DHT22;1703;51.964;7.642;2023-04-12T14:38:18;16.50;99.90
3380;DHT22;1703;51.964;7.642;2023-04-12T14:40:45;16.10;99.90
3380;DHT22;1703;51.964;7.642;2023-04-12T14:43:12;16.00;99.90
3380;DHT22;1703;51.964;7.642;2023-04-12T14:45:40;15.80;99.90
3380;DHT22;1703;51.964;7.642;2023-04-12T14:48:06;15.50;99.90
3380;DHT22;1703;51.964;7.642;2023-04-12T14:50:33;15.10;99.90
3380;DHT22;1703;51.964;7.642;2023-04-12T14:53:00;14.80;99.90
3380;DHT22;1703;51.964;7.642;2023-04-12T14:55:27;14.60;99.90
3380;DHT22;1703;51.964;7.642;2023-04-12T14:57:54;14.50;99.90
3380;DHT22;1703;51.964;7.642;2023-04-12T15:00:21;14.00;99.90
3380;DHT22;1703;51.964;7.642;2023-04-12T15:02:49;13.50;99.90
3380;DHT22;1703;51.964;7.642;2023-04-12T15:05:16;13.00;99.90
3380;DHT22;1703;51.964;7.642;2023-04-12T15:07:43;12.90;99.90
3380;DHT22;1703;51.964;7.642;2023-04-12T15:10:10;12.70;99.90
3380;DHT22;1703;51.964;7.642;2023-04-12T15:12:38;12.50;99.90
3380;DHT22;1703;51.964;7.642;2023-04-12T15:15:06;12.40;99.90
3380;DHT22;1703;51.964;7.642;2023-04-12T15:17:33;12.20;99.90
3380;DHT22;1703;51.964;7.642;2023-04-12T15:20:01;12.10;99.90
3380;DHT22;1703;51.964;7.642;2023-04-12T15:22:34;11.90;99.90
3380;DHT22;1703;51.964;7.642;2023-04-12T15:25:01;11.80;99.90
3380;DHT22;1703;51.964;7.642;2023-04-12T15:27:28;11.40;99.90
3380;DHT22;1703;51.964;7.642;2023-04-12T15:29:56;11.20;99.90
3380;DHT22;1703;51.964;7.642;2023-04-12T15:32:23;11.00;99.90
3380;DHT22;1703;51.964;7.642;2023-04-12T15:34:51;10.90;99.90
3380;DHT22;1703;51.964;7.642;2023-04-12T15:37:19;10.60;99.90
3380;DHT22;1703;51.964;7.642;2023-04-12T15:39:47;10.50;99.90
3380;DHT22;1703;51.964;7.642;2023-04-12T15:42:14;10.20;99.90
3380;DHT22;1703;51.964;7.642;2023-04-12T15:44:42;10.00;99.90
3380;DHT22;1703;51.964;7.642;2023-04-12T15:47:10;10.10;99.90
3380;DHT22;1703;51.964;7.642;2023-04-12T15:49:37;9.90;99.90
3380;DHT22;1703;51.964;7.642;2023-04-12T15:52:03;9.80;99.90
3380;DHT22;1703;51.964;7.642;2023-04-12T15:54:32;9.90;99.90
3380;DHT22;1703;51.964;7.642;2023-04-12T15:56:59;9.80;99.90
3380;DHT22;1703;51.964;7.642;2023-04-12T15:59:33;9.80;99.90
3380;DHT22;1703;51.964;7.642;2023-04-12T16:02:01;9.80;99.90
3380;DHT22;1703;51.964;7.642;2023-04-12T16:04:28;9.90;99.90
3380;DHT22;1703;51.964;7.642;2023-04-12T16:06:56;9.90;99.90
3380;DHT22;1703;51.964;7.642;2023-04-12T16:09:26;9.90;99.90
3380;DHT22;1703;51.964;7.642;2023-04-12T16:11:54;10.00;99.90
3380;DHT22;1703;51.964;7.642;2023-04-12T16:14:21;10.00;99.90
3380;DHT22;1703;51.964;7.642;2023-04-12T16:16:48;10.00;99.90